Time;durP1;ratioP1;P1;durP2;ratioP2;P2;SDS_P1;SDS_P2;PMS_P1;PMS_P2;Temp;Humidity;BMP_temperature;BMP_pressure;BME280_temperature;BME280_humidity;BME280_pressure;Samples;Min_cycle;Max_cycle;Signal;HPM_P1;HPM_P2
2024/01/06 00:01:15;;;;;;;75.93;32.00;;;;;;;;;;5032479;28;20120;-78
2024/01/06 00:03:40;;;;;;;73.78;33.97;;;;;;;;;;4992006;28;20509;-78
2024/01/06 00:06:06;;;;;;;75.53;32.42;;;;;;;;;;5014781;28;20052;-78
2024/01/06 00:08:31;;;;;;;70.25;31.80;;;;;;;;;;5042678;28;20065;-79
2024/01/06 00:10:57;;;;;;;77.88;33.95;;;;;;;;;;5019979;28;20075;-80
2024/01/06 00:13:22;;;;;;;67.85;30.67;;;;;;;;;;5034270;28;20049;-78
2024/01/06 00:15:48;;;;;;;75.85;32.83;;;;;;;;;;5019931;28;20029;-78
2024/01/06 00:18:19;;;;;;;71.90;32.58;;;;;;;;;;5020197;28;20392;-77
2024/01/06 00:20:44;;;;;;;78.82;32.67;;;;;;;;;;5017374;28;20048;-80
2024/01/06 00:23:10;;;;;;;76.13;31.95;;;;;;;;;;5025386;28;20033;-77
2024/01/06 00:25:35;;;;;;;73.60;32.58;;;;;;;;;;5032674;28;20495;-78
2024/01/06 00:28:04;;;;;;;73.38;31.65;;;;;;;;;;5038345;28;20147;-78
2024/01/06 00:30:29;;;;;;;76.90;33.42;;;;;;;;;;5012635;28;20483;-78
2024/01/06 00:32:55;;;;;;;73.65;31.58;;;;;;;;;;5034943;28;20057;-79
2024/01/06 00:35:20;;;;;;;71.40;33.00;;;;;;;;;;5022547;28;20496;-79
2024/01/06 00:37:45;;;;;;;74.47;32.55;;;;;;;;;;5038435;28;20038;-78
2024/01/06 00:40:11;;;;;;;73.88;30.83;;;;;;;;;;5038835;28;20098;-78
2024/01/06 00:42:36;;;;;;;67.95;31.85;;;;;;;;;;5011477;28;20132;-78
2024/01/06 00:45:04;;;;;;;74.00;32.47;;;;;;;;;;5036689;28;20028;-79
2024/01/06 00:47:29;;;;;;;72.95;31.55;;;;;;;;;;5035722;28;20050;-79
2024/01/06 00:49:54;;;;;;;71.03;32.22;;;;;;;;;;5037360;28;20030;-79
2024/01/06 00:52:20;;;;;;;74.13;31.70;;;;;;;;;;5027214;28;20040;-78
2024/01/06 00:54:46;;;;;;;74.72;32.63;;;;;;;;;;5026787;28;20417;-79
2024/01/06 00:57:12;;;;;;;74.90;32.33;;;;;;;;;;5030501;28;20495;-78
2024/01/06 00:59:37;;;;;;;71.40;32.55;;;;;;;;;;5011227;28;20135;-78
2024/01/06 01:02:03;;;;;;;72.07;31.35;;;;;;;;;;5038586;28;20033;-80
2024/01/06 01:04:28;;;;;;;72.72;31.15;;;;;;;;;;5022376;28;20037;-78
2024/01/06 01:06:53;;;;;;;68.63;32.50;;;;;;;;;;5037279;28;20030;-78
2024/01/06 01:09:19;;;;;;;77.03;32.30;;;;;;;;;;5037627;28;20065;-77
2024/01/06 01:11:45;;;;;;;74.05;31.08;;;;;;;;;;5023598;28;20061;-78
2024/01/06 01:14:11;;;;;;;69.20;30.77;;;;;;;;;;5034347;28;20032;-79
2024/01/06 01:16:36;;;;;;;75.85;31.23;;;;;;;;;;5039198;28;20036;-82
2024/01/06 01:19:02;;;;;;;62.92;30.85;;;;;;;;;;5025583;28;20045;-78
2024/01/06 01:21:28;;;;;;;73.03;31.73;;;;;;;;;;5022420;28;20139;-78
2024/01/06 01:23:53;;;;;;;67.15;31.55;;;;;;;;;;5044897;28;20048;-79
2024/01/06 01:26:19;;;;;;;67.78;31.35;;;;;;;;;;5020519;28;20040;-79
2024/01/06 01:28:44;;;;;;;67.72;30.50;;;;;;;;;;5036503;28;20037;-78
2024/01/06 01:31:10;;;;;;;60.63;28.50;;;;;;;;;;5021064;28;20041;-78
2024/01/06 01:33:35;;;;;;;71.30;30.98;;;;;;;;;;5038529;28;20183;-78
2024/01/06 01:36:00;;;;;;;63.33;28.73;;;;;;;;;;5035017;28;20441;-80
2024/01/06 01:38:26;;;;;;;62.53;28.77;;;;;;;;;;5020656;28;20493;-80
2024/01/06 01:40:51;;;;;;;65.35;28.42;;;;;;;;;;5033860;28;20045;-79
2024/01/06 01:43:20;;;;;;;62.70;29.00;;;;;;;;;;5035530;28;20203;-80
2024/01/06 01:45:51;;;;;;;65.07;30.02;;;;;;;;;;5034665;28;20113;-78
2024/01/06 01:48:16;;;;;;;64.30;30.08;;;;;;;;;;5033522;28;20144;-80
2024/01/06 01:50:42;;;;;;;66.60;29.15;;;;;;;;;;5026376;28;20124;-78
2024/01/06 01:53:07;;;;;;;64.80;29.38;;;;;;;;;;5043234;28;20115;-77
2024/01/06 01:55:33;;;;;;;63.25;28.52;;;;;;;;;;5045068;28;20045;-78
2024/01/06 01:57:58;;;;;;;59.00;28.13;;;;;;;;;;5022273;28;20477;-78
2024/01/06 02:00:24;;;;;;;59.50;27.95;;;;;;;;;;5028886;28;20055;-79
2024/01/06 02:02:49;;;;;;;61.13;27.73;;;;;;;;;;5032051;28;20068;-79
2024/01/06 02:05:14;;;;;;;63.38;29.50;;;;;;;;;;5038933;28;20057;-78
2024/01/06 02:07:40;;;;;;;60.97;28.25;;;;;;;;;;5037962;28;20431;-79
2024/01/06 02:10:06;;;;;;;58.58;28.15;;;;;;;;;;5028551;28;20104;-77
2024/01/06 02:12:31;;;;;;;57.83;27.52;;;;;;;;;;5023503;28;20033;-79
2024/01/06 02:14:57;;;;;;;57.85;27.05;;;;;;;;;;5040812;28;20121;-79
2024/01/06 02:17:22;;;;;;;57.22;27.58;;;;;;;;;;5021782;28;20769;-79
2024/01/06 02:19:48;;;;;;;58.03;26.23;;;;;;;;;;5036481;28;20519;-78
2024/01/06 02:22:13;;;;;;;60.90;28.60;;;;;;;;;;5036694;28;20147;-78
2024/01/06 02:24:38;;;;;;;61.85;26.77;;;;;;;;;;5018768;28;20102;-79
2024/01/06 02:27:04;;;;;;;56.67;26.75;;;;;;;;;;5037101;28;20048;-79
2024/01/06 02:29:29;;;;;;;58.90;27.15;;;;;;;;;;5037378;28;20045;-78
2024/01/06 02:31:55;;;;;;;59.03;26.80;;;;;;;;;;5034745;28;20045;-78
2024/01/06 02:34:20;;;;;;;56.85;27.08;;;;;;;;;;5037868;28;20033;-78
2024/01/06 02:36:45;;;;;;;62.25;26.40;;;;;;;;;;5032582;28;20025;-79
2024/01/06 02:39:11;;;;;;;58.80;26.92;;;;;;;;;;5039405;28;20395;-78
2024/01/06 02:41:36;;;;;;;52.65;26.63;;;;;;;;;;5034523;28;20040;-77
2024/01/06 02:44:03;;;;;;;58.97;27.00;;;;;;;;;;5036166;28;20025;-78
2024/01/06 02:46:29;;;;;;;54.88;27.45;;;;;;;;;;5036133;28;20033;-78
2024/01/06 02:48:54;;;;;;;57.55;27.10;;;;;;;;;;5035162;28;20036;-79
2024/01/06 02:51:19;;;;;;;55.78;26.13;;;;;;;;;;5020449;28;20033;-78
2024/01/06 02:53:45;;;;;;;53.13;25.80;;;;;;;;;;5033768;28;20060;-79
2024/01/06 02:56:11;;;;;;;54.92;25.85;;;;;;;;;;5033475;28;20108;-78
2024/01/06 02:58:37;;;;;;;53.90;25.83;;;;;;;;;;5044194;28;20082;-80
2024/01/06 03:01:02;;;;;;;56.20;25.48;;;;;;;;;;5034833;28;20630;-78
2024/01/06 03:03:30;;;;;;;55.08;25.00;;;;;;;;;;5034407;28;20527;-78
2024/01/06 03:05:55;;;;;;;54.10;25.23;;;;;;;;;;5035038;28;20553;-78
2024/01/06 03:08:22;;;;;;;57.53;26.35;;;;;;;;;;5031798;28;20042;-79
2024/01/06 03:10:48;;;;;;;55.83;25.52;;;;;;;;;;5033589;28;20029;-79
2024/01/06 03:13:17;;;;;;;53.60;25.25;;;;;;;;;;5010732;28;20456;-78
2024/01/06 03:15:42;;;;;;;53.65;25.90;;;;;;;;;;5027212;28;20036;-78
2024/01/06 03:18:08;;;;;;;54.58;25.88;;;;;;;;;;5031832;28;20441;-79
2024/01/06 03:20:36;;;;;;;55.78;25.58;;;;;;;;;;5038323;28;20056;-78
2024/01/06 03:23:02;;;;;;;51.28;25.40;;;;;;;;;;5037302;28;20041;-78
2024/01/06 03:25:30;;;;;;;57.72;25.83;;;;;;;;;;5035398;28;20512;-77
2024/01/06 03:27:55;;;;;;;51.20;24.40;;;;;;;;;;5025280;28;20529;-78
2024/01/06 03:30:20;;;;;;;56.95;25.50;;;;;;;;;;5027766;28;20040;-78
2024/01/06 03:32:46;;;;;;;56.22;25.75;;;;;;;;;;5009046;28;20021;-76
2024/01/06 03:35:11;;;;;;;54.47;26.30;;;;;;;;;;4997667;28;20041;-77
2024/01/06 03:37:36;;;;;;;55.42;25.63;;;;;;;;;;5008265;28;20067;-78
2024/01/06 03:40:02;;;;;;;53.35;26.20;;;;;;;;;;5015676;28;20049;-78
2024/01/06 03:42:36;;;;;;;53.85;25.88;;;;;;;;;;5015954;28;20040;-77
2024/01/06 03:45:02;;;;;;;57.40;27.00;;;;;;;;;;5027390;28;20048;-79
2024/01/06 03:47:28;;;;;;;55.83;26.67;;;;;;;;;;5034024;28;20037;-77
2024/01/06 03:49:53;;;;;;;56.90;25.13;;;;;;;;;;5031050;28;20072;-78
2024/01/06 03:52:19;;;;;;;52.75;25.08;;;;;;;;;;5020436;28;20044;-77
2024/01/06 03:54:47;;;;;;;55.13;25.52;;;;;;;;;;5037131;28;20033;-77
2024/01/06 03:57:13;;;;;;;59.10;28.45;;;;;;;;;;5023774;28;20037;-77
2024/01/06 03:59:38;;;;;;;54.13;25.23;;;;;;;;;;5019472;28;20392;-79
2024/01/06 04:02:04;;;;;;;56.10;26.52;;;;;;;;;;5023023;28;20045;-79
2024/01/06 04:04:32;;;;;;;53.30;25.15;;;;;;;;;;5039225;28;20029;-77
2024/01/06 04:06:57;;;;;;;56.10;25.90;;;;;;;;;;5038530;28;20037;-79
2024/01/06 04:09:23;;;;;;;57.63;25.95;;;;;;;;;;5022140;28;20405;-78
2024/01/06 04:11:48;;;;;;;58.72;26.17;;;;;;;;;;5035623;28;20040;-79
2024/01/06 04:14:13;;;;;;;60.72;25.40;;;;;;;;;;5026481;28;20029;-78
2024/01/06 04:16:42;;;;;;;57.60;26.20;;;;;;;;;;5026848;28;20037;-78
2024/01/06 04:19:08;;;;;;;58.33;26.17;;;;;;;;;;5041037;28;20093;-79
2024/01/06 04:21:34;;;;;;;52.58;24.90;;;;;;;;;;5035785;28;20492;-78
2024/01/06 04:23:59;;;;;;;55.42;23.88;;;;;;;;;;5038830;28;20037;-77
2024/01/06 04:26:25;;;;;;;55.33;25.40;;;;;;;;;;5035526;28;20068;-77
2024/01/06 04:28:50;;;;;;;51.13;24.23;;;;;;;;;;5026287;28;20057;-77
2024/01/06 04:31:15;;;;;;;59.70;25.13;;;;;;;;;;5035162;28;20603;-78
2024/01/06 04:33:42;;;;;;;62.25;26.60;;;;;;;;;;5034640;28;20041;-77
2024/01/06 04:36:09;;;;;;;55.83;25.33;;;;;;;;;;5022864;28;20087;-78
2024/01/06 04:38:34;;;;;;;54.53;24.70;;;;;;;;;;5027004;28;20037;-78
2024/01/06 04:40:59;;;;;;;58.65;24.45;;;;;;;;;;5025164;28;20039;-78
2024/01/06 04:43:25;;;;;;;53.63;24.98;;;;;;;;;;5040287;28;20037;-77
2024/01/06 04:45:50;;;;;;;56.78;25.63;;;;;;;;;;5035379;28;20045;-77
2024/01/06 04:48:16;;;;;;;57.55;26.23;;;;;;;;;;5016191;28;20386;-78
2024/01/06 04:50:44;;;;;;;52.95;24.35;;;;;;;;;;5017896;28;20042;-78
2024/01/06 04:53:10;;;;;;;66.00;26.50;;;;;;;;;;4998802;28;20400;-78
2024/01/06 04:55:35;;;;;;;62.50;27.10;;;;;;;;;;5015717;28;20029;-78
2024/01/06 04:58:00;;;;;;;64.13;26.45;;;;;;;;;;5039847;28;20392;-78
2024/01/06 05:00:26;;;;;;;58.60;24.90;;;;;;;;;;5028107;28;20068;-77
2024/01/06 05:02:51;;;;;;;60.50;24.58;;;;;;;;;;5033301;28;20043;-77
2024/01/06 05:05:17;;;;;;;57.85;26.33;;;;;;;;;;5036134;28;20064;-78
2024/01/06 05:07:42;;;;;;;57.15;24.48;;;;;;;;;;5036766;28;20068;-80
2024/01/06 05:10:08;;;;;;;61.15;25.98;;;;;;;;;;5017185;28;20041;-81
2024/01/06 05:12:33;;;;;;;62.40;26.70;;;;;;;;;;5018441;28;20384;-80
2024/01/06 05:14:59;;;;;;;53.42;24.35;;;;;;;;;;5029121;28;20440;-78
2024/01/06 05:17:25;;;;;;;59.78;25.67;;;;;;;;;;5024392;28;20029;-77
2024/01/06 05:19:50;;;;;;;64.95;27.77;;;;;;;;;;5021890;28;20037;-79
2024/01/06 05:22:16;;;;;;;59.67;25.80;;;;;;;;;;5032869;28;20108;-79
2024/01/06 05:24:41;;;;;;;58.05;26.65;;;;;;;;;;5019271;28;20041;-78
2024/01/06 05:27:06;;;;;;;61.75;26.10;;;;;;;;;;5025877;28;20099;-79
2024/01/06 05:29:32;;;;;;;65.60;27.73;;;;;;;;;;5043781;28;20084;-79
2024/01/06 05:32:00;;;;;;;62.13;25.90;;;;;;;;;;5037535;28;20037;-77
2024/01/06 05:34:29;;;;;;;57.30;26.63;;;;;;;;;;5018828;28;20036;-79
2024/01/06 05:36:54;;;;;;;62.08;27.17;;;;;;;;;;5021795;28;20069;-78
2024/01/06 05:39:19;;;;;;;55.55;25.90;;;;;;;;;;5025171;28;20065;-76
2024/01/06 05:41:45;;;;;;;59.17;26.25;;;;;;;;;;5005803;28;20045;-77
2024/01/06 05:44:10;;;;;;;58.38;25.55;;;;;;;;;;5022533;28;20036;-78
2024/01/06 05:46:36;;;;;;;67.43;28.35;;;;;;;;;;4990246;28;20040;-79
2024/01/06 05:49:01;;;;;;;68.68;28.30;;;;;;;;;;5032972;28;20086;-77
2024/01/06 05:51:30;;;;;;;68.70;27.77;;;;;;;;;;5035979;28;20048;-77
2024/01/06 05:53:56;;;;;;;68.82;28.02;;;;;;;;;;5026281;28;20055;-77
2024/01/06 05:56:25;;;;;;;65.15;27.63;;;;;;;;;;5035263;28;20033;-77
2024/01/06 05:58:51;;;;;;;72.40;28.13;;;;;;;;;;5034623;28;20710;-76
2024/01/06 06:01:17;;;;;;;62.28;27.30;;;;;;;;;;5038787;28;20040;-79
2024/01/06 06:03:46;;;;;;;63.00;26.42;;;;;;;;;;5035469;28;20025;-78
2024/01/06 06:06:27;;;;;;;66.68;27.13;;;;;;;;;;5025164;28;20060;-79
2024/01/06 06:08:52;;;;;;;63.03;26.85;;;;;;;;;;5006230;28;20034;-78
2024/01/06 06:11:18;;;;;;;67.50;28.70;;;;;;;;;;5031940;28;20040;-78
2024/01/06 06:13:43;;;;;;;73.90;29.95;;;;;;;;;;5018184;28;20041;-78
2024/01/06 06:16:10;;;;;;;68.85;28.55;;;;;;;;;;5010367;28;20034;-78
2024/01/06 06:18:35;;;;;;;63.05;26.13;;;;;;;;;;5034035;28;20048;-78
2024/01/06 06:21:10;;;;;;;65.50;28.70;;;;;;;;;;5015353;28;20037;-80
2024/01/06 06:23:35;;;;;;;61.75;26.67;;;;;;;;;;5021139;28;20661;-78
2024/01/06 06:26:07;;;;;;;69.82;28.90;;;;;;;;;;4999508;28;20112;-79
2024/01/06 06:28:32;;;;;;;68.05;28.65;;;;;;;;;;5031380;28;20540;-78
2024/01/06 06:30:57;;;;;;;66.75;27.98;;;;;;;;;;5036157;28;20026;-79
2024/01/06 06:33:34;;;;;;;66.50;27.58;;;;;;;;;;5032578;28;20047;-80
2024/01/06 06:36:01;;;;;;;65.63;28.00;;;;;;;;;;5035686;28;20531;-78
2024/01/06 06:38:26;;;;;;;73.78;29.50;;;;;;;;;;5024805;28;20117;-79
2024/01/06 06:40:52;;;;;;;69.20;28.70;;;;;;;;;;5033470;28;20171;-77
2024/01/06 06:43:17;;;;;;;68.20;28.27;;;;;;;;;;4991478;28;20037;-78
2024/01/06 06:45:43;;;;;;;65.55;28.65;;;;;;;;;;5028481;28;20151;-77
2024/01/06 06:48:11;;;;;;;61.63;28.02;;;;;;;;;;5008549;28;20077;-80
2024/01/06 06:50:45;;;;;;;68.93;28.67;;;;;;;;;;5006039;28;20044;-77
2024/01/06 06:53:10;;;;;;;68.30;28.27;;;;;;;;;;5013129;28;20508;-77
2024/01/06 06:55:37;;;;;;;64.65;27.83;;;;;;;;;;5033409;28;20056;-78
2024/01/06 06:58:03;;;;;;;63.17;27.43;;;;;;;;;;5035148;28;20041;-77
2024/01/06 07:00:28;;;;;;;65.63;28.25;;;;;;;;;;5032134;28;20488;-77
2024/01/06 07:02:54;;;;;;;69.72;28.33;;;;;;;;;;5016767;28;20068;-77
2024/01/06 07:05:19;;;;;;;63.28;27.70;;;;;;;;;;5016225;28;20041;-79
2024/01/06 07:07:46;;;;;;;62.22;26.65;;;;;;;;;;5035000;28;20047;-78
2024/01/06 07:10:12;;;;;;;71.07;27.80;;;;;;;;;;5024841;28;20068;-77
2024/01/06 07:12:41;;;;;;;65.97;27.02;;;;;;;;;;4993036;28;20036;-77
2024/01/06 07:15:11;;;;;;;62.03;26.05;;;;;;;;;;5006390;28;20068;-77
2024/01/06 07:17:38;;;;;;;63.85;25.58;;;;;;;;;;5031825;28;20052;-77
2024/01/06 07:20:06;;;;;;;61.50;24.98;;;;;;;;;;5020310;28;20033;-79
2024/01/06 07:22:32;;;;;;;67.20;25.63;;;;;;;;;;5035931;28;20591;-78
2024/01/06 07:24:57;;;;;;;62.28;26.52;;;;;;;;;;5015452;28;20035;-78
2024/01/06 07:27:23;;;;;;;64.18;26.85;;;;;;;;;;5035384;28;22795;-78
2024/01/06 07:29:48;;;;;;;66.43;27.33;;;;;;;;;;5026849;28;20504;-77
2024/01/06 07:32:15;;;;;;;69.47;26.02;;;;;;;;;;5023233;28;20079;-80
2024/01/06 07:34:40;;;;;;;64.85;26.58;;;;;;;;;;5035009;28;20366;-79
2024/01/06 07:37:06;;;;;;;69.13;27.75;;;;;;;;;;5031175;28;20110;-78
2024/01/06 07:39:31;;;;;;;67.38;27.02;;;;;;;;;;5022761;28;20037;-78
2024/01/06 07:41:56;;;;;;;65.07;27.20;;;;;;;;;;5037207;28;20415;-78
2024/01/06 07:44:24;;;;;;;71.47;27.10;;;;;;;;;;5035024;28;20034;-80
2024/01/06 07:46:50;;;;;;;;;;;;;;;;;;5033884;28;20383;-79
2024/01/06 07:49:15;;;;;;;67.88;27.35;;;;;;;;;;5036934;28;19917;-78
2024/01/06 07:51:41;;;;;;;67.32;25.90;;;;;;;;;;5034238;28;20041;-78
2024/01/06 07:54:08;;;;;;;57.25;25.35;;;;;;;;;;5034265;28;20041;-79
2024/01/06 07:56:36;;;;;;;75.32;27.15;;;;;;;;;;5035900;28;20040;-78
2024/01/06 07:59:11;;;;;;;66.70;26.98;;;;;;;;;;5026132;28;20500;-80
2024/01/06 08:01:39;;;;;;;67.03;26.48;;;;;;;;;;5018090;28;20049;-78
2024/01/06 08:04:27;;;;;;;72.55;28.42;;;;;;;;;;5021970;28;20052;-77
2024/01/06 08:06:53;;;;;;;73.88;27.90;;;;;;;;;;4954474;28;20027;-78
2024/01/06 08:09:18;;;;;;;65.72;26.63;;;;;;;;;;4947683;28;20395;-79
2024/01/06 08:11:47;;;;;;;72.53;27.85;;;;;;;;;;4925857;28;20050;-78
2024/01/06 08:14:13;;;;;;;64.50;27.40;;;;;;;;;;4963003;28;20043;-78
2024/01/06 08:16:41;;;;;;;73.80;28.30;;;;;;;;;;4938428;28;20039;-78
2024/01/06 08:19:07;;;;;;;69.97;28.27;;;;;;;;;;4947977;28;20058;-79
2024/01/06 08:21:33;;;;;;;73.47;27.38;;;;;;;;;;4947474;28;20035;-78
2024/01/06 08:23:59;;;;;;;70.07;27.07;;;;;;;;;;4946355;28;20430;-79
2024/01/06 08:26:25;;;;;;;64.68;27.50;;;;;;;;;;4931637;28;20281;-79
2024/01/06 08:28:50;;;;;;;74.68;28.33;;;;;;;;;;4939649;28;20541;-78
2024/01/06 08:31:15;;;;;;;72.88;28.58;;;;;;;;;;4947468;28;20539;-77
2024/01/06 08:33:41;;;;;;;70.90;26.77;;;;;;;;;;4930109;28;20070;-78
2024/01/06 08:36:07;;;;;;;80.03;29.52;;;;;;;;;;4946702;28;20046;-79
2024/01/06 08:38:35;;;;;;;69.95;27.88;;;;;;;;;;4947610;28;20068;-81
2024/01/06 08:41:01;;;;;;;74.82;28.65;;;;;;;;;;4961929;28;20442;-80
2024/01/06 08:43:26;;;;;;;76.38;29.20;;;;;;;;;;4987896;28;20040;-78
2024/01/06 08:45:52;;;;;;;72.35;28.02;;;;;;;;;;5027614;28;20041;-77
2024/01/06 08:48:18;;;;;;;80.40;28.92;;;;;;;;;;5034912;28;20512;-79
2024/01/06 08:50:45;;;;;;;73.78;28.92;;;;;;;;;;5019950;28;20388;-80
2024/01/06 08:53:14;;;;;;;78.93;29.58;;;;;;;;;;5033721;28;20101;-77
2024/01/06 08:55:39;;;;;;;75.30;27.45;;;;;;;;;;5023570;28;20029;-78
2024/01/06 08:58:05;;;;;;;72.05;28.50;;;;;;;;;;5002577;28;20044;-78
2024/01/06 09:00:31;;;;;;;73.88;27.30;;;;;;;;;;5044441;28;20041;-79
2024/01/06 09:02:59;;;;;;;73.25;28.42;;;;;;;;;;5023644;28;20571;-78
2024/01/06 09:05:25;;;;;;;71.60;28.33;;;;;;;;;;5019818;28;20045;-80
2024/01/06 09:07:50;;;;;;;72.97;28.70;;;;;;;;;;5023784;28;20099;-78
2024/01/06 09:10:19;;;;;;;71.10;28.05;;;;;;;;;;5026577;28;20065;-78
2024/01/06 09:12:44;;;;;;;76.25;27.77;;;;;;;;;;5010801;28;20029;-80
2024/01/06 09:15:10;;;;;;;72.20;28.10;;;;;;;;;;5033009;28;20389;-78
2024/01/06 09:17:35;;;;;;;73.57;28.73;;;;;;;;;;5036509;28;20396;-78
2024/01/06 09:20:01;;;;;;;68.40;27.52;;;;;;;;;;5013338;28;20556;-79
2024/01/06 09:22:27;;;;;;;74.80;28.75;;;;;;;;;;5025706;28;20041;-78
2024/01/06 09:24:55;;;;;;;71.05;26.98;;;;;;;;;;5036308;28;20064;-78
2024/01/06 09:27:24;;;;;;;74.45;27.35;;;;;;;;;;5026171;28;20120;-79
2024/01/06 09:29:51;;;;;;;68.22;26.70;;;;;;;;;;5020253;28;20048;-78
2024/01/06 09:32:16;;;;;;;64.57;27.67;;;;;;;;;;5016656;28;20072;-78
2024/01/06 09:35:03;;;;;;;70.95;26.85;;;;;;;;;;5021688;28;20280;-78
2024/01/06 09:37:29;;;;;;;72.40;27.08;;;;;;;;;;4964647;28;20082;-79
2024/01/06 09:39:54;;;;;;;62.30;25.45;;;;;;;;;;4973387;28;20042;-78
2024/01/06 09:42:19;;;;;;;64.53;26.67;;;;;;;;;;4960642;28;20081;-78
2024/01/06 09:44:45;;;;;;;83.53;29.63;;;;;;;;;;4959907;28;20034;-79
2024/01/06 09:47:12;;;;;;;70.63;28.98;;;;;;;;;;4960368;28;20096;-78
2024/01/06 09:49:44;;;;;;;76.40;28.10;;;;;;;;;;4942932;28;20094;-78
2024/01/06 09:52:15;;;;;;;66.55;26.63;;;;;;;;;;4941221;28;20872;-77
2024/01/06 09:54:46;;;;;;;73.70;29.05;;;;;;;;;;4977364;28;20064;-76
2024/01/06 09:57:12;;;;;;;69.97;29.38;;;;;;;;;;4962689;28;20120;-76
2024/01/06 09:59:42;;;;;;;71.13;27.83;;;;;;;;;;4973674;28;20034;-76
2024/01/06 10:02:07;;;;;;;68.72;26.67;;;;;;;;;;4954095;28;20101;-77
2024/01/06 10:04:33;;;;;;;60.55;26.73;;;;;;;;;;4976591;28;20497;-77
2024/01/06 10:06:58;;;;;;;60.42;26.38;;;;;;;;;;4967593;28;20588;-75
2024/01/06 10:09:28;;;;;;;63.35;26.23;;;;;;;;;;4948680;28;21758;-76
2024/01/06 10:11:56;;;;;;;61.53;26.15;;;;;;;;;;4956735;28;20042;-77
2024/01/06 10:14:21;;;;;;;63.95;26.23;;;;;;;;;;5000804;28;20033;-77
2024/01/06 10:16:49;;;;;;;58.33;25.85;;;;;;;;;;5023772;28;20082;-76
2024/01/06 10:19:14;;;;;;;;;;;;;;;;;;5028605;28;20029;-78
2024/01/06 10:21:39;;;;;;;61.50;25.90;;;;;;;;;;5018423;28;19921;-76
2024/01/06 10:24:08;;;;;;;63.55;26.27;;;;;;;;;;5035037;28;20276;-75
2024/01/06 10:26:33;;;;;;;59.60;26.77;;;;;;;;;;5026527;28;20532;-78
2024/01/06 10:28:59;;;;;;;62.15;26.30;;;;;;;;;;5027866;28;20042;-78
2024/01/06 10:31:25;;;;;;;59.88;26.13;;;;;;;;;;5009942;28;20765;-78
2024/01/06 10:33:51;;;;;;;61.15;26.15;;;;;;;;;;5026875;28;20033;-79
2024/01/06 10:36:17;;;;;;;60.95;26.70;;;;;;;;;;5010523;28;20381;-79
2024/01/06 10:38:47;;;;;;;57.33;26.65;;;;;;;;;;5005213;28;20043;-82
2024/01/06 10:41:21;;;;;;;60.47;26.98;;;;;;;;;;5024530;28;20040;-79
2024/01/06 10:43:47;;;;;;;53.17;24.25;;;;;;;;;;5025076;28;20036;-78
2024/01/06 10:46:15;;;;;;;57.88;26.00;;;;;;;;;;5036260;28;20119;-78
2024/01/06 10:48:45;;;;;;;56.13;25.58;;;;;;;;;;5034786;28;20044;-78
2024/01/06 10:51:11;;;;;;;51.47;25.65;;;;;;;;;;5024129;28;20611;-78
2024/01/06 10:53:40;;;;;;;57.08;25.52;;;;;;;;;;5019497;28;20030;-77
2024/01/06 10:56:10;;;;;;;59.50;24.95;;;;;;;;;;5013620;28;20041;-78
2024/01/06 10:58:46;;;;;;;56.00;25.42;;;;;;;;;;5037669;28;20401;-76
2024/01/06 11:01:16;;;;;;;52.35;23.33;;;;;;;;;;5007903;28;20203;-77
2024/01/06 11:03:41;;;;;;;51.47;23.95;;;;;;;;;;5021622;28;20492;-77
2024/01/06 11:06:10;;;;;;;51.47;24.42;;;;;;;;;;5004205;28;20094;-77
2024/01/06 11:08:49;;;;;;;52.28;23.88;;;;;;;;;;5023621;28;20047;-78
2024/01/06 11:11:16;;;;;;;50.67;25.35;;;;;;;;;;5007825;28;20087;-80
2024/01/06 11:13:47;;;;;;;50.90;25.35;;;;;;;;;;5035983;28;20039;-78
2024/01/06 11:16:36;;;;;;;55.88;25.55;;;;;;;;;;5015019;28;20048;-77
2024/01/06 11:19:02;;;;;;;50.60;24.75;;;;;;;;;;5007745;28;20535;-79
2024/01/06 11:21:29;;;;;;;59.72;27.90;;;;;;;;;;5034853;28;20072;-79
2024/01/06 11:24:06;;;;;;;49.55;24.73;;;;;;;;;;5015651;28;20036;-79
2024/01/06 11:26:31;;;;;;;51.30;24.33;;;;;;;;;;5022419;28;20566;-78
2024/01/06 11:28:58;;;;;;;49.78;24.92;;;;;;;;;;5031653;28;20038;-78
2024/01/06 11:31:23;;;;;;;46.40;24.88;;;;;;;;;;5008913;28;20036;-78
2024/01/06 11:33:51;;;;;;;50.90;24.38;;;;;;;;;;5016283;28;20041;-79
2024/01/06 11:36:16;;;;;;;51.42;23.85;;;;;;;;;;5034093;28;20040;-78
2024/01/06 11:38:46;;;;;;;51.55;24.20;;;;;;;;;;5019418;28;20037;-80
2024/01/06 11:41:52;;;;;;;45.58;22.75;;;;;;;;;;5034737;28;20029;-78
2024/01/06 11:44:41;;;;;;;47.75;22.67;;;;;;;;;;5032971;28;20037;-80
2024/01/06 11:47:06;;;;;;;45.28;23.30;;;;;;;;;;4952557;28;20035;-77
2024/01/06 11:49:32;;;;;;;47.60;23.60;;;;;;;;;;4955247;28;20062;-77
2024/01/06 11:52:02;;;;;;;45.50;22.40;;;;;;;;;;4930064;28;20466;-77
2024/01/06 11:54:36;;;;;;;46.75;23.15;;;;;;;;;;4940782;28;20046;-78
2024/01/06 11:57:02;;;;;;;43.65;21.77;;;;;;;;;;4913208;28;20573;-78
2024/01/06 11:59:27;;;;;;;43.95;21.98;;;;;;;;;;4945781;28;20055;-78
2024/01/06 12:01:53;;;;;;;48.45;23.88;;;;;;;;;;4939473;28;20050;-79
2024/01/06 12:04:18;;;;;;;41.95;21.80;;;;;;;;;;4954152;28;20043;-79
2024/01/06 12:06:43;;;;;;;47.55;24.02;;;;;;;;;;4935897;28;20043;-79
2024/01/06 12:09:15;;;;;;;50.38;24.83;;;;;;;;;;4930349;28;20043;-78
2024/01/06 12:11:41;;;;;;;44.88;23.55;;;;;;;;;;4928334;28;20038;-78
2024/01/06 12:14:07;;;;;;;46.15;23.02;;;;;;;;;;4935957;28;20054;-79
2024/01/06 12:16:35;;;;;;;48.63;24.70;;;;;;;;;;4941991;28;20027;-78
2024/01/06 12:19:02;;;;;;;49.42;24.52;;;;;;;;;;4954478;28;20046;-78
2024/01/06 12:21:31;;;;;;;47.28;24.35;;;;;;;;;;4928642;28;20487;-78
2024/01/06 12:24:15;;;;;;;45.95;23.38;;;;;;;;;;4967177;28;20033;-78
2024/01/06 12:26:41;;;;;;;46.38;23.77;;;;;;;;;;5028025;28;20075;-79
2024/01/06 12:29:07;;;;;;;45.30;21.70;;;;;;;;;;5036436;28;20099;-79
2024/01/06 12:31:33;;;;;;;42.80;20.95;;;;;;;;;;5035946;28;20787;-79
2024/01/06 12:33:59;;;;;;;44.67;23.67;;;;;;;;;;5035972;28;20041;-79
2024/01/06 12:36:24;;;;;;;47.05;22.92;;;;;;;;;;5039187;28;20086;-79
2024/01/06 12:38:50;;;;;;;49.08;24.67;;;;;;;;;;5045324;28;20258;-78
2024/01/06 12:41:16;;;;;;;42.28;21.70;;;;;;;;;;5036291;28;20041;-79
2024/01/06 12:43:44;;;;;;;41.13;21.20;;;;;;;;;;5029354;28;20037;-78
2024/01/06 12:46:09;;;;;;;38.97;20.75;;;;;;;;;;5035214;28;20033;-80
2024/01/06 12:48:37;;;;;;;45.25;22.55;;;;;;;;;;5037674;28;20480;-80
2024/01/06 12:51:05;;;;;;;43.88;21.15;;;;;;;;;;5020145;28;20041;-79
2024/01/06 12:53:31;;;;;;;42.30;22.23;;;;;;;;;;5027079;28;20124;-79
2024/01/06 12:55:56;;;;;;;51.50;22.98;;;;;;;;;;5021697;28;20125;-78
2024/01/06 12:58:23;;;;;;;43.55;21.95;;;;;;;;;;5022513;28;20106;-79
2024/01/06 13:00:49;;;;;;;44.97;20.77;;;;;;;;;;5028436;28;20040;-80
2024/01/06 13:03:14;;;;;;;46.35;22.85;;;;;;;;;;5032702;28;20037;-79
2024/01/06 13:05:40;;;;;;;43.40;23.30;;;;;;;;;;5028453;28;20508;-80
2024/01/06 13:08:06;;;;;;;68.18;32.45;;;;;;;;;;5037819;28;20040;-80
2024/01/06 13:10:31;;;;;;;46.97;24.00;;;;;;;;;;5036605;28;20041;-79
2024/01/06 13:12:56;;;;;;;47.90;23.73;;;;;;;;;;5034510;28;20029;-79
2024/01/06 13:15:22;;;;;;;41.92;22.00;;;;;;;;;;5028687;28;20591;-78
2024/01/06 13:17:48;;;;;;;47.67;22.75;;;;;;;;;;5014249;28;20057;-79
2024/01/06 13:20:16;;;;;;;41.47;20.92;;;;;;;;;;5032245;28;20457;-80
2024/01/06 13:22:41;;;;;;;46.45;23.27;;;;;;;;;;5033819;28;20410;-78
2024/01/06 13:25:08;;;;;;;43.90;22.15;;;;;;;;;;5037546;28;20042;-77
2024/01/06 13:27:34;;;;;;;45.13;21.17;;;;;;;;;;5029744;28;20050;-78
2024/01/06 13:29:59;;;;;;;42.05;21.48;;;;;;;;;;5035339;28;20042;-79
2024/01/06 13:32:26;;;;;;;44.17;21.42;;;;;;;;;;5037025;28;20030;-77
2024/01/06 13:34:54;;;;;;;;;;;;;;;;;;5024453;28;20416;-77
2024/01/06 13:37:22;;;;;;;40.92;21.08;;;;;;;;;;5037156;28;20015;-78
2024/01/06 13:39:47;;;;;;;47.90;22.17;;;;;;;;;;5016805;28;20037;-78
2024/01/06 13:42:23;;;;;;;42.47;21.35;;;;;;;;;;5014908;28;20047;-77
2024/01/06 13:45:09;;;;;;;42.65;22.13;;;;;;;;;;5034613;28;20043;-78
2024/01/06 13:47:37;;;;;;;40.67;21.17;;;;;;;;;;4975364;28;20573;-78
2024/01/06 13:50:03;;;;;;;40.20;20.90;;;;;;;;;;4953403;28;20043;-79
2024/01/06 13:52:28;;;;;;;38.72;21.20;;;;;;;;;;4972214;28;20057;-78
2024/01/06 13:55:11;;;;;;;40.85;20.00;;;;;;;;;;4975156;28;20026;-78
2024/01/06 13:57:41;;;;;;;42.85;21.33;;;;;;;;;;4963131;28;20119;-79
2024/01/06 14:00:08;;;;;;;41.85;20.85;;;;;;;;;;4968398;28;20046;-77
2024/01/06 14:02:33;;;;;;;40.92;19.63;;;;;;;;;;4975221;28;20057;-77
2024/01/06 14:04:58;;;;;;;37.85;20.02;;;;;;;;;;4956136;28;20498;-77
2024/01/06 14:07:25;;;;;;;37.53;19.88;;;;;;;;;;4948078;28;20038;-78
2024/01/06 14:09:50;;;;;;;37.92;19.15;;;;;;;;;;4965777;28;20045;-78
2024/01/06 14:12:15;;;;;;;37.13;20.13;;;;;;;;;;4956627;28;20121;-79
2024/01/06 14:14:43;;;;;;;38.25;20.35;;;;;;;;;;4951760;28;20042;-79
2024/01/06 14:17:09;;;;;;;37.83;19.60;;;;;;;;;;4974129;28;20073;-77